Latest Weather Observations for Nowra

IDN60901

Issued at 7:45 pm EDT Sunday 26 October 2014 (issued every 10 minutes, with the page automatically refreshed every 10 minutes)

About weather observations | Map of Canberra area stations | Latest observations for Canberra area | Other Formats
Station Details ID: 068072 Name: NOWRA RAN AIR STATION AWS Lat: -34.95 Lon: 150.54 Height: 109.0 m
Data from the previous 72 hours. | See also: Recent months at Nowra
Date/Time
EDT
Tmp

°C
App
Tmp
°C
Dew
Point
°C
Rel
Hum
%
Delta-T

°C
Wind Press
QNH
hPa
Press
MSL
hPa
Rain
since
9 am
mm
Dir
 
Spd
km/h
Gust
km/h
Spd
kts
Gust
kts
26/07:39pm 17.8 17.8 17.2 96 0.4 S 13 20 7 11 1013.1 - 0.0
26/07:30pm 17.9 18.1 16.8 93 0.7 S 11 15 6 8 1012.8 - 0.0
26/07:00pm 17.9 17.8 16.9 94 0.6 S 13 17 7 9 1012.5 - 0.0
26/06:59pm 17.8 17.6 16.8 94 0.6 S 13 17 7 9 1012.5 - 0.0
26/06:34pm 18.2 18.0 16.7 91 0.9 S 13 20 7 11 1012.0 - 0.0
26/06:30pm 18.3 18.0 16.5 89 1.1 S 13 20 7 11 1012.0 - 0.0
26/06:00pm 19.2 18.0 16.1 82 1.9 SSE 17 22 9 12 1011.4 1011.3 0.0
26/05:30pm 19.7 17.7 15.6 77 2.4 SSE 20 30 11 16 1011.1 - 0.0
26/05:00pm 20.0 18.7 15.8 77 2.5 SSE 17 22 9 12 1010.8 - 0.0
26/04:30pm 20.5 18.1 15.5 73 3.0 SSE 22 32 12 17 1010.1 - 0.0
26/04:00pm 22.2 19.8 15.5 66 4.0 S 22 28 12 15 1009.9 - 0.0
26/03:41pm 22.6 20.4 15.9 66 4.1 S 22 32 12 17 1009.7 - 0.0
26/03:30pm 22.7 20.1 15.8 65 4.2 S 24 32 13 17 1009.6 - 0.0
26/03:00pm 23.2 21.2 16.5 66 4.1 SSE 22 28 12 15 1009.7 1009.6 0.0
26/02:30pm 23.0 20.7 15.8 64 4.4 SE 22 32 12 17 1009.7 - 0.0
26/02:00pm 22.9 20.5 15.5 63 4.5 SE 22 30 12 16 1009.7 - 0.0
26/01:30pm 24.1 22.5 16.1 61 4.9 SE 19 33 10 18 1009.7 - 0.0
26/01:00pm 24.2 22.6 16.5 62 4.7 ESE 20 26 11 14 1009.7 - 0.0
26/12:30pm 23.8 22.8 16.6 64 4.4 SE 17 26 9 14 1009.8 - 0.0
26/12:00pm 23.6 23.1 16.9 66 4.1 SE 15 20 8 11 1009.9 1009.8 0.0
26/11:30am 22.9 22.1 16.0 65 4.2 SE 15 20 8 11 1010.0 - 0.0
26/11:00am 22.8 22.3 15.9 65 4.2 SSE 13 20 7 11 1010.1 - 0.0
26/10:30am 22.2 21.7 15.8 67 3.9 S 13 20 7 11 1010.3 - 0.0
26/10:00am 21.2 20.5 15.5 70 3.4 SE 13 19 7 10 1010.4 - 0.0
26/09:30am 20.7 21.4 15.7 73 3.0 ESE 6 11 3 6 1010.4 - 0.0
26/09:00am 19.9 21.0 15.7 77 2.5 SE 4 9 2 5 1010.4 1010.3 0.0
26/08:53am 19.6 21.5 15.7 78 2.3 CALM 0 7 0 4 1010.4 - 0.0
26/08:30am 18.3 20.1 15.4 83 1.7 CALM 0 2 0 1 1010.6 - 0.0
26/08:00am 17.7 18.3 15.3 86 1.4 NW 6 9 3 5 1010.5 - 0.0
26/07:30am 17.4 18.9 15.6 89 1.1 N 2 7 1 4 1010.6 - 0.0
26/07:00am 17.2 19.0 15.5 90 1.0 CALM 0 0 0 0 1010.6 - 0.0
26/06:30am 17.2 17.8 15.9 92 0.8 W 7 9 4 5 1010.8 - 0.0
26/06:00am 17.1 19.1 16.0 93 0.7 WSW 0 0 0 0 1010.6 1010.5 0.0
26/05:30am 17.0 17.9 16.2 95 0.5 WNW 6 7 3 4 1010.6 - 0.0
26/05:00am 16.9 19.2 16.7 99 0.1 CALM 0 0 0 0 1010.8 - 0.0
26/04:30am 16.9 19.3 16.9 100 0.0 CALM 0 0 0 0 1010.9 - 0.0
26/04:08am 16.8 19.1 16.8 100 0.0 CALM 0 0 0 0 1011.1 - 0.0
26/04:00am 16.8 19.1 16.8 100 0.0 CALM 0 0 0 0 1011.2 - 0.0
26/03:30am 16.7 18.6 16.7 100 0.0 SE 2 7 1 4 1011.7 - 0.0
26/03:00am 16.7 19.0 16.7 100 0.0 CALM 0 0 0 0 1012.1 1012.0 0.0
26/02:30am 16.8 19.1 16.8 100 0.0 CALM 0 0 0 0 1012.6 - 0.0
26/02:25am 16.8 19.1 16.8 100 0.0 CALM 0 0 0 0 1012.6 - 0.0
26/02:21am 16.8 19.1 16.8 100 0.0 CALM 0 0 0 0 1012.8 - 0.0
26/02:00am 16.7 17.6 16.7 100 0.0 ESE 7 7 4 4 1013.1 - 0.0
26/01:30am 16.9 17.8 16.7 99 0.1 SSE 7 9 4 5 1013.5 - 0.0
26/01:00am 17.0 18.0 16.8 99 0.1 S 7 9 4 5 1013.9 - 0.0
26/12:46am 17.0 18.2 16.8 99 0.1 S 6 7 3 4 1014.1 - 0.0
26/12:30am 17.0 19.3 16.8 99 0.1 CALM 0 0 0 0 1014.2 - 0.0
26/12:00am 17.0 19.3 16.8 99 0.1 SE 0 0 0 0 1014.6 1014.4 0.0
 
Date/Time
EDT
Tmp

°C
App
Tmp
°C
Dew
Point
°C
Rel
Hum
%
Delta-T

°C
Wind Press
QNH
hPa
Press
MSL
hPa
Rain
since
9 am
mm
Dir
 
Spd
km/h
Gust
km/h
Spd
kts
Gust
kts
25/11:30pm 17.1 18.1 16.9 99 0.1 ESE 7 9 4 5 1015.3 - 0.0
25/11:00pm 17.3 19.3 17.0 98 0.2 NNW 2 6 1 3 1015.7 - 0.0
25/10:30pm 17.5 18.6 16.7 95 0.5 SSW 6 9 3 5 1016.8 - 0.0
25/10:00pm 17.5 18.4 16.7 95 0.5 SW 7 11 4 6 1016.9 - 0.0
25/09:30pm 17.6 18.1 16.6 94 0.6 S 9 11 5 6 1016.5 - 0.0
25/09:00pm 17.7 19.1 16.4 92 0.8 SE 4 9 2 5 1016.5 1016.3 0.0
25/08:30pm 17.6 19.3 16.1 91 0.9 ESE 2 9 1 5 1016.2 - 0.0
25/08:00pm 17.7 18.2 16.6 93 0.7 E 9 11 5 6 1015.6 - 0.0
25/07:30pm 17.7 18.1 16.2 91 0.9 SE 9 11 5 6 1015.6 - 0.0
25/07:00pm 17.7 18.9 15.9 89 1.1 NNE 4 11 2 6 1015.4 - 0.0
25/06:33pm 17.9 17.6 16.4 91 0.9 ESE 13 17 7 9 1015.3 - 0.0
25/06:30pm 17.9 17.3 16.6 92 0.8 SE 15 17 8 9 1015.4 - 0.0
25/06:19pm 17.8 16.3 16.3 91 0.9 SE 19 24 10 13 1015.4 - 0.0
25/06:00pm 18.2 16.6 16.4 89 1.1 SE 20 22 11 12 1015.8 1015.6 0.0
25/05:30pm 18.3 18.2 16.1 87 1.3 SE 11 15 6 8 1014.9 - 0.0
25/05:00pm 18.5 17.7 16.1 86 1.4 SE 15 19 8 10 1015.1 - 0.0
25/04:30pm 19.2 17.7 16.4 84 1.7 SE 19 24 10 13 1014.9 - 0.0
25/04:00pm 19.6 18.1 16.4 82 1.9 SSE 19 26 10 14 1014.9 - 0.0
25/03:30pm 20.1 18.0 16.1 78 2.4 SSE 22 32 12 17 1014.8 - 0.0
25/03:00pm 21.1 18.1 16.9 77 2.6 SE 28 35 15 19 1014.7 1014.5 0.0
25/02:43pm 22.0 19.8 16.9 73 3.1 SE 24 32 13 17 1014.9 - 0.0
25/02:30pm 21.3 18.4 16.0 72 3.2 SE 26 30 14 16 1014.9 - 0.0
25/02:00pm 22.8 21.3 16.8 69 3.7 SSE 20 26 11 14 1015.2 - 0.0
25/01:30pm 23.0 20.8 16.8 68 3.8 SE 24 30 13 16 1015.2 - 0.0
25/01:00pm 23.2 20.7 17.0 68 3.8 SE 26 33 14 18 1015.3 - 0.0
25/12:30pm 23.9 22.1 16.9 65 4.3 SSE 22 32 12 17 1015.4 - 0.0
25/12:00pm 24.0 21.8 16.0 61 4.9 SSE 22 28 12 15 1015.6 1015.4 0.0
25/11:30am 24.7 22.4 16.7 61 4.9 ESE 24 28 13 15 1015.7 - 0.0
25/11:00am 25.9 24.2 17.3 59 5.4 SE 22 28 12 15 1015.7 - 0.0
25/10:30am 26.6 25.0 15.0 49 7.0 S 17 24 9 13 1015.7 - 0.0
25/10:00am 25.8 26.4 15.2 52 6.4 SSW 6 11 3 6 1015.7 - 0.0
25/09:30am 25.5 24.9 14.6 51 6.5 W 11 17 6 9 1015.6 - 0.0
25/09:00am 23.9 23.3 14.6 56 5.5 WNW 11 15 6 8 1015.6 1015.4 0.4
25/08:30am 22.5 21.4 14.4 60 4.8 NW 13 17 7 9 1015.6 - 0.4
25/08:00am 21.6 20.1 14.3 63 4.3 WNW 15 19 8 10 1015.8 - 0.4
25/07:30am 20.5 19.9 14.6 69 3.5 WNW 11 15 6 8 1015.2 - 0.4
25/07:00am 19.2 18.7 15.9 81 2.0 W 13 19 7 10 1014.8 - 0.4
25/06:30am 17.1 17.6 16.5 96 0.4 W 9 15 5 8 1014.5 - 0.4
25/06:00am 15.4 15.5 15.4 100 0.0 W 9 11 5 6 1014.3 1014.1 0.4
25/05:30am 15.7 16.3 15.7 100 0.0 WSW 7 9 4 5 1013.6 - 0.4
25/05:28am 15.7 16.3 15.7 100 0.0 WSW 7 11 4 6 1013.5 - 0.4
25/05:00am 15.4 15.1 15.4 100 0.0 SSW 11 13 6 7 1012.9 - 0.2
25/04:41am 15.7 16.3 15.7 100 0.0 S 7 11 4 6 1012.5 - 0.2
25/04:30am 16.5 17.4 16.5 100 0.0 W 7 11 4 6 1012.4 - 0.2
25/04:09am 15.2 15.6 15.2 100 0.0 S 7 9 4 5 1012.0 - 0.2
25/04:00am 14.8 15.2 14.8 100 0.0 S 6 9 3 5 1012.0 - 0.2
25/03:51am 14.5 15.6 14.5 100 0.0 SSW 2 6 1 3 1011.8 - 0.2
25/03:42am 14.8 15.0 14.8 100 0.0 SSW 7 7 4 4 1011.8 - 0.2
25/03:30am 14.8 15.1 14.6 99 0.1 SSW 6 9 3 5 1011.7 - 0.2
25/03:26am 15.2 16.4 15.0 99 0.1 ESE 2 7 1 4 1011.6 - 0.2
25/03:00am 17.1 19.2 17.1 100 0.0 E 2 7 1 4 1011.6 1011.5 0.2
25/02:44am 17.6 18.5 17.6 100 0.0 N 9 15 5 8 1011.5 - 0.2
25/02:30am 16.9 17.9 16.9 100 0.0 N 7 11 4 6 1011.5 - 0.2
25/02:29am 16.8 18.0 16.8 100 0.0 N 6 11 3 6 1011.5 - 0.2
25/02:00am 17.2 19.6 17.0 99 0.1 CALM 0 0 0 0 1011.5 - 0.2
25/01:30am 17.8 20.4 17.5 98 0.2 CALM 0 0 0 0 1011.7 - 0.2
25/01:00am 18.4 21.3 18.2 99 0.1 CALM 0 0 0 0 1011.9 - 0.2
25/12:30am 19.6 22.2 18.3 92 0.8 W 2 7 1 4 1011.9 - 0.2
25/12:00am 19.9 21.3 18.6 92 0.8 W 9 15 5 8 1012.0 1011.9 0.2
 
Date/Time
EDT
Tmp

°C
App
Tmp
°C
Dew
Point
°C
Rel
Hum
%
Delta-T

°C
Wind Press
QNH
hPa
Press
MSL
hPa
Rain
since
9 am
mm
Dir
 
Spd
km/h
Gust
km/h
Spd
kts
Gust
kts
24/11:30pm 20.2 22.2 19.2 94 0.6 N 7 11 4 6 1011.8 - 0.2
24/11:00pm 20.2 21.2 19.4 95 0.5 NW 13 19 7 10 1012.0 - 0.2
24/10:30pm 20.2 20.6 19.9 98 0.2 WNW 17 22 9 12 1012.1 - 0.2
24/10:00pm 20.3 20.7 19.1 93 0.8 N 15 20 8 11 1013.0 - 0.0
24/09:30pm 20.9 21.6 18.8 88 1.3 N 13 20 7 11 1013.1 - 0.0
24/09:00pm 20.6 20.4 18.4 87 1.4 NW 17 20 9 11 1013.6 1013.4 0.0
24/08:30pm 20.1 21.0 18.4 90 1.1 S 11 15 6 8 1012.6 - 0.0
24/08:00pm 19.7 21.4 18.4 92 0.8 SW 7 9 4 5 1012.3 - 0.0
24/07:30pm 19.8 20.8 17.8 88 1.2 S 9 11 5 6 1011.9 - 0.0
24/07:00pm 20.5 21.5 17.7 84 1.7 SE 9 11 5 6 1011.6 - 0.0
24/06:30pm 21.1 21.7 17.7 81 2.1 ESE 11 15 6 8 1011.5 - 0.0
24/06:00pm 21.6 21.8 17.6 78 2.5 E 13 19 7 10 1011.5 1011.4 0.0
24/05:30pm 23.0 23.1 17.5 71 3.4 ESE 13 19 7 10 1011.5 - 0.0
24/05:00pm 23.7 23.2 17.7 69 3.8 E 17 20 9 11 1011.6 - 0.0
24/04:30pm 23.5 22.6 17.7 70 3.6 E 19 24 10 13 1011.7 - 0.0
24/04:00pm 24.3 23.3 18.0 68 4.0 E 20 28 11 15 1012.1 - 0.0
24/03:30pm 24.4 22.5 17.6 66 4.3 E 24 30 13 16 1012.2 - 0.0
24/03:00pm 24.7 24.0 18.2 67 4.1 E 19 26 10 14 1012.8 1012.7 0.0
24/02:30pm 25.1 24.5 18.8 68 4.0 ENE 20 26 11 14 1013.5 - 0.0
24/02:00pm 24.6 23.7 18.3 68 4.0 E 20 24 11 13 1014.0 - 0.0
24/01:30pm 24.6 23.9 18.3 68 4.0 E 19 26 10 14 1014.6 - 0.0
24/01:00pm 24.1 22.7 17.1 65 4.3 E 20 28 11 15 1015.2 - 0.0
24/12:30pm 24.3 23.4 16.8 63 4.6 ENE 17 20 9 11 1015.8 - 0.0
24/12:00pm 24.1 24.1 17.1 65 4.3 ENE 13 26 7 14 1016.6 1016.4 0.0
24/11:30am 23.6 23.6 17.1 67 4.0 E 13 17 7 9 1017.4 - 0.0
24/11:00am 22.9 22.8 17.8 73 3.2 E 15 20 8 11 1018.1 - 0.0
24/10:30am 22.3 22.8 16.6 70 3.5 ENE 9 15 5 8 1018.5 - 0.0
24/10:00am 20.5 21.4 17.5 83 1.8 SE 9 13 5 7 1018.6 - 0.0
24/09:30am 19.6 20.5 17.6 88 1.2 SE 9 13 5 7 1018.5 - 0.0
24/09:00am 18.9 19.4 16.5 86 1.4 S 9 11 5 6 1019.2 1019.1 3.2
24/08:30am 18.6 19.1 16.6 88 1.2 S 9 11 5 6 1019.2 - 3.2
24/08:00am 18.4 17.7 15.3 82 1.8 S 13 15 7 8 1018.9 - 3.2
24/07:30am 17.5 17.6 15.5 88 1.2 SSW 9 11 5 6 1018.8 - 3.2
24/07:00am 17.0 17.9 16.0 94 0.6 S 6 9 3 5 1018.5 - 3.2
24/06:30am 17.6 17.5 15.0 85 1.5 NW 9 13 5 7 1018.0 - 3.2
24/06:00am 18.0 16.7 14.9 82 1.8 NNW 15 28 8 15 1017.6 1017.5 3.2
24/05:30am 17.4 15.3 15.2 87 1.3 NNW 20 26 11 14 1017.0 - 3.2
24/05:00am 17.3 16.5 15.1 87 1.3 WNW 13 22 7 12 1018.6 - 3.2
24/04:30am 17.8 14.8 14.9 83 1.7 NW 24 33 13 18 1018.9 - 2.4
24/04:00am 17.8 14.9 15.1 84 1.6 W 24 28 13 15 1019.5 - 1.4
24/03:30am 17.5 19.3 16.5 94 0.6 SE 2 7 1 4 1019.1 - 1.4
24/03:00am 17.7 16.7 16.7 94 0.6 S 17 20 9 11 1020.4 1020.3 1.0
24/02:30am 17.6 18.1 17.4 99 0.1 W 11 20 6 11 1019.2 - 0.6
24/02:00am 17.6 17.3 17.4 99 0.1 W 15 20 8 11 1018.5 - 0.6
24/01:30am 17.7 18.2 17.5 99 0.1 WNW 11 13 6 7 1018.7 - 0.6
24/01:15am 17.9 18.9 17.7 99 0.1 NNW 9 11 5 6 1018.7 - 0.6
24/01:00am 18.0 18.3 18.0 100 0.0 NNW 13 15 7 8 1018.9 - 0.6
24/12:45am 17.9 18.2 17.9 100 0.0 WSW 13 20 7 11 1019.6 - 0.6
24/12:39am 18.0 18.3 18.0 100 0.0 WSW 13 19 7 10 1019.7 - 0.6
24/12:30am 17.8 14.3 17.8 100 0.0 NNE 33 44 18 24 1017.7 - 0.4
24/12:26am 17.9 14.6 17.9 100 0.0 NNE 32 43 17 23 1017.9 - 0.4
24/12:24am 17.9 15.3 17.9 100 0.0 NNE 28 39 15 21 1018.8 - 0.4
24/12:12am 18.1 19.8 18.1 100 0.0 N 6 9 3 5 1021.0 - 0.4
24/12:00am 18.1 18.9 18.1 100 0.0 N 11 17 6 9 1020.8 1020.7 0.4
 
Date/Time
EDT
Tmp

°C
App
Tmp
°C
Dew
Point
°C
Rel
Hum
%
Delta-T

°C
Wind Press
QNH
hPa
Press
MSL
hPa
Rain
since
9 am
mm
Dir
 
Spd
km/h
Gust
km/h
Spd
kts
Gust
kts
23/11:42pm 18.3 18.7 18.1 99 0.1 SE 13 19 7 10 1021.4 - 0.2
23/11:30pm 18.3 19.1 18.1 99 0.1 S 11 15 6 8 1022.0 - 0.0
23/11:10pm 18.4 18.4 18.2 99 0.1 SW 15 20 8 11 1021.8 - 0.0
23/11:00pm 18.4 18.1 18.2 99 0.1 ENE 17 26 9 14 1021.3 - 0.0
23/10:00pm 18.6 19.1 17.4 93 0.7 S 11 13 6 7 1021.0 - 0.0
23/09:30pm 18.8 20.0 17.3 91 0.9 S 7 9 4 5 1020.5 - 0.0
23/09:00pm 18.8 19.9 17.1 90 1.0 SW 7 11 4 6 1020.4 1020.3 0.0
23/08:30pm 19.3 21.8 17.3 88 1.2 CALM 0 6 0 3 1020.0 - 0.0
23/08:00pm 19.4 20.6 17.4 88 1.2 SE 7 11 4 6 1019.8 - 0.0

Latest Capital City Observations: Canberra | Sydney | Melbourne | Brisbane | Adelaide | Perth | Hobart | Darwin

Other Formats:

Comma delimited format used in spreadsheet applications
http://www.bom.gov.au/fwo/IDN60903/IDN60903.94750.axf

JavaScript Object Notation format (JSON) in row-major order
http://www.bom.gov.au/fwo/IDN60903/IDN60903.94750.json